sensor_id;sensor_type;location;lat;lon;timestamp;temperature;humidity
69533;DHT22;56729;52.036;5.332;2024-01-15T00:00:59;2.50;99.90
69533;DHT22;56729;52.036;5.332;2024-01-15T00:02:01;2.50;99.90
69533;DHT22;56729;52.036;5.332;2024-01-15T00:03:05;2.50;99.90
69533;DHT22;56729;52.036;5.332;2024-01-15T00:04:07;2.50;99.90
69533;DHT22;56729;52.036;5.332;2024-01-15T00:05:09;2.50;99.90
69533;DHT22;56729;52.036;5.332;2024-01-15T00:06:11;2.50;99.90
69533;DHT22;56729;52.036;5.332;2024-01-15T00:07:13;2.50;99.90
69533;DHT22;56729;52.036;5.332;2024-01-15T00:08:15;2.50;99.90
69533;DHT22;56729;52.036;5.332;2024-01-15T00:09:17;2.40;99.90
69533;DHT22;56729;52.036;5.332;2024-01-15T00:10:19;2.40;99.90
69533;DHT22;56729;52.036;5.332;2024-01-15T00:11:21;2.40;99.90
69533;DHT22;56729;52.036;5.332;2024-01-15T00:12:23;2.40;99.90
69533;DHT22;56729;52.036;5.332;2024-01-15T00:13:25;2.40;99.90
69533;DHT22;56729;52.036;5.332;2024-01-15T00:14:28;2.40;99.90
69533;DHT22;56729;52.036;5.332;2024-01-15T00:15:30;2.40;99.90
69533;DHT22;56729;52.036;5.332;2024-01-15T00:16:32;2.40;99.90
69533;DHT22;56729;52.036;5.332;2024-01-15T00:17:34;2.40;99.90
69533;DHT22;56729;52.036;5.332;2024-01-15T00:18:36;2.40;99.90
69533;DHT22;56729;52.036;5.332;2024-01-15T00:19:39;2.40;99.90
69533;DHT22;56729;52.036;5.332;2024-01-15T00:20:41;2.40;99.90
69533;DHT22;56729;52.036;5.332;2024-01-15T00:21:44;2.30;99.90
69533;DHT22;56729;52.036;5.332;2024-01-15T00:22:46;2.30;99.90
69533;DHT22;56729;52.036;5.332;2024-01-15T00:23:48;2.30;99.90
69533;DHT22;56729;52.036;5.332;2024-01-15T00:24:49;2.30;99.90
69533;DHT22;56729;52.036;5.332;2024-01-15T00:25:52;2.30;99.90
69533;DHT22;56729;52.036;5.332;2024-01-15T00:26:54;2.30;99.90
69533;DHT22;56729;52.036;5.332;2024-01-15T00:27:56;2.30;99.90
69533;DHT22;56729;52.036;5.332;2024-01-15T00:28:58;2.20;99.90
69533;DHT22;56729;52.036;5.332;2024-01-15T00:30:00;2.20;99.90
69533;DHT22;56729;52.036;5.332;2024-01-15T00:31:02;2.20;99.90
69533;DHT22;56729;52.036;5.332;2024-01-15T00:32:06;2.20;99.90
69533;DHT22;56729;52.036;5.332;2024-01-15T00:33:08;2.20;99.90
69533;DHT22;56729;52.036;5.332;2024-01-15T00:34:10;2.20;99.90
69533;DHT22;56729;52.036;5.332;2024-01-15T00:35:12;2.20;99.90
69533;DHT22;56729;52.036;5.332;2024-01-15T00:36:14;2.20;99.90
69533;DHT22;56729;52.036;5.332;2024-01-15T00:37:18;2.20;99.90
69533;DHT22;56729;52.036;5.332;2024-01-15T00:38:20;2.20;99.90
69533;DHT22;56729;52.036;5.332;2024-01-15T00:39:22;2.20;99.90
69533;DHT22;56729;52.036;5.332;2024-01-15T00:40:27;2.20;99.90
69533;DHT22;56729;52.036;5.332;2024-01-15T00:41:29;2.20;99.90
69533;DHT22;56729;52.036;5.332;2024-01-15T00:42:31;2.20;99.90
69533;DHT22;56729;52.036;5.332;2024-01-15T00:43:33;2.20;99.90
69533;DHT22;56729;52.036;5.332;2024-01-15T00:44:35;2.20;99.90
69533;DHT22;56729;52.036;5.332;2024-01-15T00:45:37;2.20;99.90
69533;DHT22;56729;52.036;5.332;2024-01-15T00:46:45;2.20;99.90
69533;DHT22;56729;52.036;5.332;2024-01-15T00:47:48;2.30;99.90
69533;DHT22;56729;52.036;5.332;2024-01-15T00:48:52;2.30;99.90
69533;DHT22;56729;52.036;5.332;2024-01-15T00:49:55;2.20;99.90
69533;DHT22;56729;52.036;5.332;2024-01-15T00:50:57;2.20;99.90
69533;DHT22;56729;52.036;5.332;2024-01-15T00:51:59;2.20;99.90
69533;DHT22;56729;52.036;5.332;2024-01-15T00:53:01;2.20;99.90
69533;DHT22;56729;52.036;5.332;2024-01-15T00:54:03;2.20;99.90
69533;DHT22;56729;52.036;5.332;2024-01-15T00:55:05;2.20;99.90
69533;DHT22;56729;52.036;5.332;2024-01-15T00:56:07;2.20;99.90
69533;DHT22;56729;52.036;5.332;2024-01-15T00:57:09;2.20;99.90
69533;DHT22;56729;52.036;5.332;2024-01-15T00:58:11;2.20;99.90
69533;DHT22;56729;52.036;5.332;2024-01-15T00:59:13;2.20;99.90
69533;DHT22;56729;52.036;5.332;2024-01-15T01:00:17;2.20;99.90
69533;DHT22;56729;52.036;5.332;2024-01-15T01:01:20;2.20;99.90
69533;DHT22;56729;52.036;5.332;2024-01-15T01:02:22;2.20;99.90
69533;DHT22;56729;52.036;5.332;2024-01-15T01:03:24;2.10;99.90
69533;DHT22;56729;52.036;5.332;2024-01-15T01:04:26;2.10;99.90
69533;DHT22;56729;52.036;5.332;2024-01-15T01:05:28;2.10;99.90
69533;DHT22;56729;52.036;5.332;2024-01-15T01:06:30;2.10;99.90
69533;DHT22;56729;52.036;5.332;2024-01-15T01:07:35;2.10;99.90
69533;DHT22;56729;52.036;5.332;2024-01-15T01:08:39;2.10;99.90
69533;DHT22;56729;52.036;5.332;2024-01-15T01:09:41;2.00;99.90
69533;DHT22;56729;52.036;5.332;2024-01-15T01:10:43;2.10;99.90
69533;DHT22;56729;52.036;5.332;2024-01-15T01:11:45;2.00;99.90
69533;DHT22;56729;52.036;5.332;2024-01-15T01:12:47;2.00;99.90
69533;DHT22;56729;52.036;5.332;2024-01-15T01:13:49;2.00;99.90
69533;DHT22;56729;52.036;5.332;2024-01-15T01:14:51;2.00;99.90
69533;DHT22;56729;52.036;5.332;2024-01-15T01:15:53;2.00;99.90
69533;DHT22;56729;52.036;5.332;2024-01-15T01:16:55;2.00;99.90
69533;DHT22;56729;52.036;5.332;2024-01-15T01:17:57;1.90;99.90
69533;DHT22;56729;52.036;5.332;2024-01-15T01:19:00;1.90;99.90
69533;DHT22;56729;52.036;5.332;2024-01-15T01:20:02;1.90;99.90
69533;DHT22;56729;52.036;5.332;2024-01-15T01:21:06;1.90;99.90
69533;DHT22;56729;52.036;5.332;2024-01-15T01:22:08;1.90;99.90
69533;DHT22;56729;52.036;5.332;2024-01-15T01:23:11;1.90;99.90
69533;DHT22;56729;52.036;5.332;2024-01-15T01:24:14;1.90;99.90
69533;DHT22;56729;52.036;5.332;2024-01-15T01:25:16;1.80;99.90
69533;DHT22;56729;52.036;5.332;2024-01-15T01:26:18;1.90;99.90
69533;DHT22;56729;52.036;5.332;2024-01-15T01:27:21;1.90;99.90
69533;DHT22;56729;52.036;5.332;2024-01-15T01:28:23;1.80;99.90
69533;DHT22;56729;52.036;5.332;2024-01-15T01:29:25;1.80;99.90
69533;DHT22;56729;52.036;5.332;2024-01-15T01:30:28;1.80;99.90
69533;DHT22;56729;52.036;5.332;2024-01-15T01:31:30;1.80;99.90
69533;DHT22;56729;52.036;5.332;2024-01-15T01:32:32;1.80;99.90
69533;DHT22;56729;52.036;5.332;2024-01-15T01:33:34;1.80;99.90
69533;DHT22;56729;52.036;5.332;2024-01-15T01:34:40;1.80;99.90
69533;DHT22;56729;52.036;5.332;2024-01-15T01:35:45;1.80;99.90
69533;DHT22;56729;52.036;5.332;2024-01-15T01:36:48;1.80;99.90
69533;DHT22;56729;52.036;5.332;2024-01-15T01:37:50;1.80;99.90
69533;DHT22;56729;52.036;5.332;2024-01-15T01:38:52;1.80;99.90
69533;DHT22;56729;52.036;5.332;2024-01-15T01:39:54;1.80;99.90
69533;DHT22;56729;52.036;5.332;2024-01-15T01:40:56;1.80;99.90
69533;DHT22;56729;52.036;5.332;2024-01-15T01:41:58;1.80;99.90
69533;DHT22;56729;52.036;5.332;2024-01-15T01:43:00;1.80;99.90
69533;DHT22;56729;52.036;5.332;2024-01-15T01:44:04;1.80;99.90
69533;DHT22;56729;52.036;5.332;2024-01-15T01:45:06;1.80;99.90
69533;DHT22;56729;52.036;5.332;2024-01-15T01:46:09;1.80;99.90
69533;DHT22;56729;52.036;5.332;2024-01-15T01:47:11;1.80;99.90
69533;DHT22;56729;52.036;5.332;2024-01-15T01:48:13;1.80;99.90
69533;DHT22;56729;52.036;5.332;2024-01-15T01:49:16;1.80;99.90
69533;DHT22;56729;52.036;5.332;2024-01-15T01:50:19;1.80;99.90
69533;DHT22;56729;52.036;5.332;2024-01-15T01:51:24;1.80;99.90
69533;DHT22;56729;52.036;5.332;2024-01-15T01:52:27;1.80;99.90
69533;DHT22;56729;52.036;5.332;2024-01-15T01:53:29;1.80;99.90
69533;DHT22;56729;52.036;5.332;2024-01-15T01:54:33;1.70;99.90
69533;DHT22;56729;52.036;5.332;2024-01-15T01:55:36;1.70;99.90
69533;DHT22;56729;52.036;5.332;2024-01-15T01:56:41;1.70;99.90
69533;DHT22;56729;52.036;5.332;2024-01-15T01:57:43;1.70;99.90
69533;DHT22;56729;52.036;5.332;2024-01-15T01:58:47;1.70;99.90
69533;DHT22;56729;52.036;5.332;2024-01-15T01:59:50;1.70;99.90
69533;DHT22;56729;52.036;5.332;2024-01-15T02:00:53;1.70;99.90
69533;DHT22;56729;52.036;5.332;2024-01-15T02:01:55;1.60;99.90
69533;DHT22;56729;52.036;5.332;2024-01-15T02:02:57;1.70;99.90
69533;DHT22;56729;52.036;5.332;2024-01-15T02:04:00;1.70;99.90
69533;DHT22;56729;52.036;5.332;2024-01-15T02:05:04;1.70;99.90
69533;DHT22;56729;52.036;5.332;2024-01-15T02:06:07;1.70;99.90
69533;DHT22;56729;52.036;5.332;2024-01-15T02:07:11;1.70;99.90
69533;DHT22;56729;52.036;5.332;2024-01-15T02:08:13;1.70;99.90
69533;DHT22;56729;52.036;5.332;2024-01-15T02:09:15;1.60;99.90
69533;DHT22;56729;52.036;5.332;2024-01-15T02:10:17;1.60;99.90
69533;DHT22;56729;52.036;5.332;2024-01-15T02:11:19;1.60;99.90
69533;DHT22;56729;52.036;5.332;2024-01-15T02:12:22;1.60;99.90
69533;DHT22;56729;52.036;5.332;2024-01-15T02:13:24;1.60;99.90
69533;DHT22;56729;52.036;5.332;2024-01-15T02:14:26;1.60;99.90
69533;DHT22;56729;52.036;5.332;2024-01-15T02:15:28;1.60;99.90
69533;DHT22;56729;52.036;5.332;2024-01-15T02:16:30;1.60;99.90
69533;DHT22;56729;52.036;5.332;2024-01-15T02:17:32;1.70;99.90
69533;DHT22;56729;52.036;5.332;2024-01-15T02:18:44;1.60;99.90
69533;DHT22;56729;52.036;5.332;2024-01-15T02:19:46;1.60;99.90
69533;DHT22;56729;52.036;5.332;2024-01-15T02:20:49;1.60;99.90
69533;DHT22;56729;52.036;5.332;2024-01-15T02:21:51;1.60;99.90
69533;DHT22;56729;52.036;5.332;2024-01-15T02:23:01;1.60;99.90
69533;DHT22;56729;52.036;5.332;2024-01-15T02:24:03;1.60;99.90
69533;DHT22;56729;52.036;5.332;2024-01-15T02:25:05;1.60;99.90
69533;DHT22;56729;52.036;5.332;2024-01-15T02:26:08;1.60;99.90
69533;DHT22;56729;52.036;5.332;2024-01-15T02:27:11;1.60;99.90
69533;DHT22;56729;52.036;5.332;2024-01-15T02:28:17;1.60;99.90
69533;DHT22;56729;52.036;5.332;2024-01-15T02:29:19;1.60;99.90
69533;DHT22;56729;52.036;5.332;2024-01-15T02:30:22;1.60;99.90
69533;DHT22;56729;52.036;5.332;2024-01-15T02:31:24;1.60;99.90
69533;DHT22;56729;52.036;5.332;2024-01-15T02:32:26;1.50;99.90
69533;DHT22;56729;52.036;5.332;2024-01-15T02:33:28;1.60;99.90
69533;DHT22;56729;52.036;5.332;2024-01-15T02:34:34;1.60;99.90
69533;DHT22;56729;52.036;5.332;2024-01-15T02:35:38;1.60;99.90
69533;DHT22;56729;52.036;5.332;2024-01-15T02:36:40;1.60;99.90
69533;DHT22;56729;52.036;5.332;2024-01-15T02:37:42;1.60;99.90
69533;DHT22;56729;52.036;5.332;2024-01-15T02:38:44;1.60;99.90
69533;DHT22;56729;52.036;5.332;2024-01-15T02:39:46;1.60;99.90
69533;DHT22;56729;52.036;5.332;2024-01-15T02:40:49;1.60;99.90
69533;DHT22;56729;52.036;5.332;2024-01-15T02:41:51;1.60;99.90
69533;DHT22;56729;52.036;5.332;2024-01-15T02:42:53;1.60;99.90
69533;DHT22;56729;52.036;5.332;2024-01-15T02:43:55;1.60;99.90
69533;DHT22;56729;52.036;5.332;2024-01-15T02:44:57;1.70;99.90
69533;DHT22;56729;52.036;5.332;2024-01-15T02:45:59;1.70;99.90
69533;DHT22;56729;52.036;5.332;2024-01-15T02:47:01;1.70;99.90
69533;DHT22;56729;52.036;5.332;2024-01-15T02:48:05;1.70;99.90
69533;DHT22;56729;52.036;5.332;2024-01-15T02:49:07;1.70;99.90
69533;DHT22;56729;52.036;5.332;2024-01-15T02:50:10;1.70;99.90
69533;DHT22;56729;52.036;5.332;2024-01-15T02:51:12;1.70;99.90
69533;DHT22;56729;52.036;5.332;2024-01-15T02:52:14;1.70;99.90
69533;DHT22;56729;52.036;5.332;2024-01-15T02:53:16;1.80;99.90
69533;DHT22;56729;52.036;5.332;2024-01-15T02:54:18;1.80;99.90
69533;DHT22;56729;52.036;5.332;2024-01-15T02:55:20;1.80;99.90
69533;DHT22;56729;52.036;5.332;2024-01-15T02:56:22;1.80;99.90
69533;DHT22;56729;52.036;5.332;2024-01-15T02:57:24;1.90;99.90
69533;DHT22;56729;52.036;5.332;2024-01-15T02:58:26;1.90;99.90
69533;DHT22;56729;52.036;5.332;2024-01-15T02:59:28;1.90;99.90
69533;DHT22;56729;52.036;5.332;2024-01-15T03:00:30;1.90;99.90
69533;DHT22;56729;52.036;5.332;2024-01-15T03:01:32;1.90;99.90
69533;DHT22;56729;52.036;5.332;2024-01-15T03:02:37;1.90;99.90
69533;DHT22;56729;52.036;5.332;2024-01-15T03:03:44;1.90;99.90
69533;DHT22;56729;52.036;5.332;2024-01-15T03:04:46;2.00;99.90
69533;DHT22;56729;52.036;5.332;2024-01-15T03:05:48;2.00;99.90
69533;DHT22;56729;52.036;5.332;2024-01-15T03:06:50;2.00;99.90
69533;DHT22;56729;52.036;5.332;2024-01-15T03:07:52;2.00;99.90
69533;DHT22;56729;52.036;5.332;2024-01-15T03:08:54;2.00;99.90
69533;DHT22;56729;52.036;5.332;2024-01-15T03:09:56;2.00;99.90
69533;DHT22;56729;52.036;5.332;2024-01-15T03:10:58;2.00;99.90
69533;DHT22;56729;52.036;5.332;2024-01-15T03:12:01;2.00;99.90
69533;DHT22;56729;52.036;5.332;2024-01-15T03:13:03;2.00;99.90
69533;DHT22;56729;52.036;5.332;2024-01-15T03:14:05;2.00;99.90
69533;DHT22;56729;52.036;5.332;2024-01-15T03:15:07;2.00;99.90
69533;DHT22;56729;52.036;5.332;2024-01-15T03:16:10;2.00;99.90
69533;DHT22;56729;52.036;5.332;2024-01-15T03:17:12;2.00;99.90
69533;DHT22;56729;52.036;5.332;2024-01-15T03:18:14;2.00;99.90
69533;DHT22;56729;52.036;5.332;2024-01-15T03:19:16;2.00;99.90
69533;DHT22;56729;52.036;5.332;2024-01-15T03:20:18;2.00;99.90
69533;DHT22;56729;52.036;5.332;2024-01-15T03:21:20;2.00;99.90
69533;DHT22;56729;52.036;5.332;2024-01-15T03:22:22;2.00;99.90
69533;DHT22;56729;52.036;5.332;2024-01-15T03:23:24;2.00;99.90
69533;DHT22;56729;52.036;5.332;2024-01-15T03:24:26;2.00;99.90
69533;DHT22;56729;52.036;5.332;2024-01-15T03:25:28;2.00;99.90
69533;DHT22;56729;52.036;5.332;2024-01-15T03:26:30;2.00;99.90
69533;DHT22;56729;52.036;5.332;2024-01-15T03:27:32;2.00;99.90
69533;DHT22;56729;52.036;5.332;2024-01-15T03:28:34;2.00;99.90
69533;DHT22;56729;52.036;5.332;2024-01-15T03:29:36;2.00;99.90
69533;DHT22;56729;52.036;5.332;2024-01-15T03:30:38;2.00;99.90
69533;DHT22;56729;52.036;5.332;2024-01-15T03:31:40;2.10;99.90
69533;DHT22;56729;52.036;5.332;2024-01-15T03:32:44;2.00;99.90
69533;DHT22;56729;52.036;5.332;2024-01-15T03:33:46;2.10;99.90
69533;DHT22;56729;52.036;5.332;2024-01-15T03:34:48;2.10;99.90
69533;DHT22;56729;52.036;5.332;2024-01-15T03:35:50;2.10;99.90
69533;DHT22;56729;52.036;5.332;2024-01-15T03:36:52;2.10;99.90
69533;DHT22;56729;52.036;5.332;2024-01-15T03:37:55;2.10;99.90
69533;DHT22;56729;52.036;5.332;2024-01-15T03:38:57;2.10;99.90
69533;DHT22;56729;52.036;5.332;2024-01-15T03:39:59;2.10;99.90
69533;DHT22;56729;52.036;5.332;2024-01-15T03:41:01;2.10;99.90
69533;DHT22;56729;52.036;5.332;2024-01-15T03:42:03;2.10;99.90
69533;DHT22;56729;52.036;5.332;2024-01-15T03:43:05;2.10;99.90
69533;DHT22;56729;52.036;5.332;2024-01-15T03:44:07;2.10;99.90
69533;DHT22;56729;52.036;5.332;2024-01-15T03:45:09;2.10;99.90
69533;DHT22;56729;52.036;5.332;2024-01-15T03:46:12;2.10;99.90
69533;DHT22;56729;52.036;5.332;2024-01-15T03:47:14;2.10;99.90
69533;DHT22;56729;52.036;5.332;2024-01-15T03:48:16;2.10;99.90
69533;DHT22;56729;52.036;5.332;2024-01-15T03:49:19;2.10;99.90
69533;DHT22;56729;52.036;5.332;2024-01-15T03:50:21;2.10;99.90
69533;DHT22;56729;52.036;5.332;2024-01-15T03:51:23;2.10;99.90
69533;DHT22;56729;52.036;5.332;2024-01-15T03:52:25;2.10;99.90
69533;DHT22;56729;52.036;5.332;2024-01-15T03:53:27;2.10;99.90
69533;DHT22;56729;52.036;5.332;2024-01-15T03:54:29;2.10;99.90
69533;DHT22;56729;52.036;5.332;2024-01-15T03:55:31;2.10;99.90
69533;DHT22;56729;52.036;5.332;2024-01-15T03:56:34;2.10;99.90
69533;DHT22;56729;52.036;5.332;2024-01-15T03:57:35;2.10;99.90
69533;DHT22;56729;52.036;5.332;2024-01-15T03:58:38;2.10;99.90
69533;DHT22;56729;52.036;5.332;2024-01-15T03:59:41;2.10;99.90
69533;DHT22;56729;52.036;5.332;2024-01-15T04:00:43;2.10;99.90
69533;DHT22;56729;52.036;5.332;2024-01-15T04:01:49;2.10;99.90
69533;DHT22;56729;52.036;5.332;2024-01-15T04:02:52;2.10;99.90
69533;DHT22;56729;52.036;5.332;2024-01-15T04:03:55;2.10;99.90
69533;DHT22;56729;52.036;5.332;2024-01-15T04:04:57;2.10;99.90
69533;DHT22;56729;52.036;5.332;2024-01-15T04:05:59;2.10;99.90
69533;DHT22;56729;52.036;5.332;2024-01-15T04:07:01;2.10;99.90
69533;DHT22;56729;52.036;5.332;2024-01-15T04:08:04;2.10;99.90
69533;DHT22;56729;52.036;5.332;2024-01-15T04:09:06;2.10;99.90
69533;DHT22;56729;52.036;5.332;2024-01-15T04:10:08;2.10;99.90
69533;DHT22;56729;52.036;5.332;2024-01-15T04:11:11;2.10;99.90
69533;DHT22;56729;52.036;5.332;2024-01-15T04:12:13;2.10;99.90
69533;DHT22;56729;52.036;5.332;2024-01-15T04:13:15;2.10;99.90
69533;DHT22;56729;52.036;5.332;2024-01-15T04:14:17;2.10;99.90
69533;DHT22;56729;52.036;5.332;2024-01-15T04:15:19;2.20;99.90
69533;DHT22;56729;52.036;5.332;2024-01-15T04:16:21;2.20;99.90
69533;DHT22;56729;52.036;5.332;2024-01-15T04:17:23;2.20;99.90
69533;DHT22;56729;52.036;5.332;2024-01-15T04:18:25;2.20;99.90
69533;DHT22;56729;52.036;5.332;2024-01-15T04:19:27;2.20;99.90
69533;DHT22;56729;52.036;5.332;2024-01-15T04:20:29;2.20;99.90
69533;DHT22;56729;52.036;5.332;2024-01-15T04:21:31;2.20;99.90
69533;DHT22;56729;52.036;5.332;2024-01-15T04:22:35;2.10;99.90
69533;DHT22;56729;52.036;5.332;2024-01-15T04:23:39;2.10;99.90
69533;DHT22;56729;52.036;5.332;2024-01-15T04:24:41;2.10;99.90
69533;DHT22;56729;52.036;5.332;2024-01-15T04:25:43;2.10;99.90
69533;DHT22;56729;52.036;5.332;2024-01-15T04:26:45;2.10;99.90
69533;DHT22;56729;52.036;5.332;2024-01-15T04:27:47;2.10;99.90
69533;DHT22;56729;52.036;5.332;2024-01-15T04:28:49;2.10;99.90
69533;DHT22;56729;52.036;5.332;2024-01-15T04:29:51;2.10;99.90
69533;DHT22;56729;52.036;5.332;2024-01-15T04:30:53;2.10;99.90
69533;DHT22;56729;52.036;5.332;2024-01-15T04:31:55;2.10;99.90
69533;DHT22;56729;52.036;5.332;2024-01-15T04:32:57;2.10;99.90
69533;DHT22;56729;52.036;5.332;2024-01-15T04:33:59;2.10;99.90
69533;DHT22;56729;52.036;5.332;2024-01-15T04:35:02;2.10;99.90
69533;DHT22;56729;52.036;5.332;2024-01-15T04:36:04;2.10;99.90
69533;DHT22;56729;52.036;5.332;2024-01-15T04:37:07;2.10;99.90
69533;DHT22;56729;52.036;5.332;2024-01-15T04:38:09;2.10;99.90
69533;DHT22;56729;52.036;5.332;2024-01-15T04:39:11;2.10;99.90
69533;DHT22;56729;52.036;5.332;2024-01-15T04:40:13;2.10;99.90
69533;DHT22;56729;52.036;5.332;2024-01-15T04:41:16;2.10;99.90
69533;DHT22;56729;52.036;5.332;2024-01-15T04:42:19;2.10;99.90
69533;DHT22;56729;52.036;5.332;2024-01-15T04:43:21;2.10;99.90
69533;DHT22;56729;52.036;5.332;2024-01-15T04:44:23;2.10;99.90
69533;DHT22;56729;52.036;5.332;2024-01-15T04:45:25;2.10;99.90
69533;DHT22;56729;52.036;5.332;2024-01-15T04:46:30;2.10;99.90
69533;DHT22;56729;52.036;5.332;2024-01-15T04:47:32;2.10;99.90
69533;DHT22;56729;52.036;5.332;2024-01-15T04:48:35;2.10;99.90
69533;DHT22;56729;52.036;5.332;2024-01-15T04:49:37;2.10;99.90
69533;DHT22;56729;52.036;5.332;2024-01-15T04:50:39;2.10;99.90
69533;DHT22;56729;52.036;5.332;2024-01-15T04:51:41;2.10;99.90
69533;DHT22;56729;52.036;5.332;2024-01-15T04:52:43;2.10;99.90
69533;DHT22;56729;52.036;5.332;2024-01-15T04:53:45;2.10;99.90
69533;DHT22;56729;52.036;5.332;2024-01-15T04:54:47;2.10;99.90
69533;DHT22;56729;52.036;5.332;2024-01-15T04:55:52;2.10;99.90
69533;DHT22;56729;52.036;5.332;2024-01-15T04:56:54;2.10;99.90
69533;DHT22;56729;52.036;5.332;2024-01-15T04:57:56;2.10;99.90
69533;DHT22;56729;52.036;5.332;2024-01-15T04:58:59;2.10;99.90
69533;DHT22;56729;52.036;5.332;2024-01-15T05:00:01;2.10;99.90
69533;DHT22;56729;52.036;5.332;2024-01-15T05:01:04;2.10;99.90
69533;DHT22;56729;52.036;5.332;2024-01-15T05:02:07;2.10;99.90
69533;DHT22;56729;52.036;5.332;2024-01-15T05:03:10;2.10;99.90
69533;DHT22;56729;52.036;5.332;2024-01-15T05:04:12;2.10;99.90
69533;DHT22;56729;52.036;5.332;2024-01-15T05:05:14;2.10;99.90
69533;DHT22;56729;52.036;5.332;2024-01-15T05:06:16;2.10;99.90
69533;DHT22;56729;52.036;5.332;2024-01-15T05:07:18;2.20;99.90
69533;DHT22;56729;52.036;5.332;2024-01-15T05:08:20;2.10;99.90
69533;DHT22;56729;52.036;5.332;2024-01-15T05:09:23;2.20;99.90
69533;DHT22;56729;52.036;5.332;2024-01-15T05:10:25;2.20;99.90
69533;DHT22;56729;52.036;5.332;2024-01-15T05:11:27;2.20;99.90
69533;DHT22;56729;52.036;5.332;2024-01-15T05:12:29;2.20;99.90
69533;DHT22;56729;52.036;5.332;2024-01-15T05:13:31;2.20;99.90
69533;DHT22;56729;52.036;5.332;2024-01-15T05:14:33;2.20;99.90
69533;DHT22;56729;52.036;5.332;2024-01-15T05:15:35;2.20;99.90
69533;DHT22;56729;52.036;5.332;2024-01-15T05:16:46;2.20;99.90
69533;DHT22;56729;52.036;5.332;2024-01-15T05:17:48;2.20;99.90
69533;DHT22;56729;52.036;5.332;2024-01-15T05:18:50;2.30;99.90
69533;DHT22;56729;52.036;5.332;2024-01-15T05:19:52;2.30;99.90
69533;DHT22;56729;52.036;5.332;2024-01-15T05:20:55;2.30;99.90
69533;DHT22;56729;52.036;5.332;2024-01-15T05:21:57;2.30;99.90
69533;DHT22;56729;52.036;5.332;2024-01-15T05:22:59;2.30;99.90
69533;DHT22;56729;52.036;5.332;2024-01-15T05:24:01;2.30;99.90
69533;DHT22;56729;52.036;5.332;2024-01-15T05:25:03;2.30;99.90
69533;DHT22;56729;52.036;5.332;2024-01-15T05:26:05;2.30;99.90
69533;DHT22;56729;52.036;5.332;2024-01-15T05:27:07;2.20;99.90
69533;DHT22;56729;52.036;5.332;2024-01-15T05:28:09;2.20;99.90
69533;DHT22;56729;52.036;5.332;2024-01-15T05:29:11;2.20;99.90
69533;DHT22;56729;52.036;5.332;2024-01-15T05:30:13;2.20;99.90
69533;DHT22;56729;52.036;5.332;2024-01-15T05:31:15;2.20;99.90
69533;DHT22;56729;52.036;5.332;2024-01-15T05:32:18;2.20;99.90
69533;DHT22;56729;52.036;5.332;2024-01-15T05:33:19;2.20;99.90
69533;DHT22;56729;52.036;5.332;2024-01-15T05:34:22;2.20;99.90
69533;DHT22;56729;52.036;5.332;2024-01-15T05:35:24;2.20;99.90
69533;DHT22;56729;52.036;5.332;2024-01-15T05:36:26;2.30;99.90
69533;DHT22;56729;52.036;5.332;2024-01-15T05:37:28;2.30;99.90
69533;DHT22;56729;52.036;5.332;2024-01-15T05:38:30;2.30;99.90
69533;DHT22;56729;52.036;5.332;2024-01-15T05:39:33;2.30;99.90
69533;DHT22;56729;52.036;5.332;2024-01-15T05:40:35;2.30;99.90
69533;DHT22;56729;52.036;5.332;2024-01-15T05:41:37;2.30;99.90
69533;DHT22;56729;52.036;5.332;2024-01-15T05:42:40;2.30;99.90
69533;DHT22;56729;52.036;5.332;2024-01-15T05:43:42;2.30;99.90
69533;DHT22;56729;52.036;5.332;2024-01-15T05:44:44;2.30;99.90
69533;DHT22;56729;52.036;5.332;2024-01-15T05:45:46;2.20;99.90
69533;DHT22;56729;52.036;5.332;2024-01-15T05:46:49;2.20;99.90
69533;DHT22;56729;52.036;5.332;2024-01-15T05:47:50;2.20;99.90
69533;DHT22;56729;52.036;5.332;2024-01-15T05:48:53;2.20;99.90
69533;DHT22;56729;52.036;5.332;2024-01-15T05:49:55;2.20;99.90
69533;DHT22;56729;52.036;5.332;2024-01-15T05:50:58;2.20;99.90
69533;DHT22;56729;52.036;5.332;2024-01-15T05:52:00;2.30;99.90
69533;DHT22;56729;52.036;5.332;2024-01-15T05:53:02;2.30;99.90
69533;DHT22;56729;52.036;5.332;2024-01-15T05:54:05;2.30;99.90
69533;DHT22;56729;52.036;5.332;2024-01-15T05:55:08;2.30;99.90
69533;DHT22;56729;52.036;5.332;2024-01-15T05:56:11;2.30;99.90
69533;DHT22;56729;52.036;5.332;2024-01-15T05:57:13;2.30;99.90
69533;DHT22;56729;52.036;5.332;2024-01-15T05:58:15;2.30;99.90
69533;DHT22;56729;52.036;5.332;2024-01-15T05:59:17;2.30;99.90
69533;DHT22;56729;52.036;5.332;2024-01-15T06:00:19;2.30;99.90
69533;DHT22;56729;52.036;5.332;2024-01-15T06:01:21;2.30;99.90
69533;DHT22;56729;52.036;5.332;2024-01-15T06:02:23;2.30;99.90
69533;DHT22;56729;52.036;5.332;2024-01-15T06:03:25;2.30;99.90
69533;DHT22;56729;52.036;5.332;2024-01-15T06:04:28;2.30;99.90
69533;DHT22;56729;52.036;5.332;2024-01-15T06:05:30;2.30;99.90
69533;DHT22;56729;52.036;5.332;2024-01-15T06:06:32;2.30;99.90
69533;DHT22;56729;52.036;5.332;2024-01-15T06:07:35;2.30;99.90
69533;DHT22;56729;52.036;5.332;2024-01-15T06:08:37;2.30;99.90
69533;DHT22;56729;52.036;5.332;2024-01-15T06:09:40;2.30;99.90
69533;DHT22;56729;52.036;5.332;2024-01-15T06:10:42;2.30;99.90
69533;DHT22;56729;52.036;5.332;2024-01-15T06:11:44;2.30;99.90
69533;DHT22;56729;52.036;5.332;2024-01-15T06:12:46;2.30;99.90
69533;DHT22;56729;52.036;5.332;2024-01-15T06:13:48;2.30;99.90
69533;DHT22;56729;52.036;5.332;2024-01-15T06:14:50;2.30;99.90
69533;DHT22;56729;52.036;5.332;2024-01-15T06:15:52;2.30;99.90
69533;DHT22;56729;52.036;5.332;2024-01-15T06:16:54;2.30;99.90
69533;DHT22;56729;52.036;5.332;2024-01-15T06:17:56;2.30;99.90
69533;DHT22;56729;52.036;5.332;2024-01-15T06:18:58;2.30;99.90
69533;DHT22;56729;52.036;5.332;2024-01-15T06:20:00;2.30;99.90
69533;DHT22;56729;52.036;5.332;2024-01-15T06:21:02;2.30;99.90
69533;DHT22;56729;52.036;5.332;2024-01-15T06:22:04;2.20;99.90
69533;DHT22;56729;52.036;5.332;2024-01-15T06:23:06;2.20;99.90
69533;DHT22;56729;52.036;5.332;2024-01-15T06:24:08;2.20;99.90
69533;DHT22;56729;52.036;5.332;2024-01-15T06:25:12;2.20;99.90
69533;DHT22;56729;52.036;5.332;2024-01-15T06:26:14;2.20;99.90
69533;DHT22;56729;52.036;5.332;2024-01-15T06:27:16;2.20;99.90
69533;DHT22;56729;52.036;5.332;2024-01-15T06:28:18;2.20;99.90
69533;DHT22;56729;52.036;5.332;2024-01-15T06:29:20;2.20;99.90
69533;DHT22;56729;52.036;5.332;2024-01-15T06:30:22;2.10;99.90
69533;DHT22;56729;52.036;5.332;2024-01-15T06:31:24;2.10;99.90
69533;DHT22;56729;52.036;5.332;2024-01-15T06:32:26;2.10;99.90
69533;DHT22;56729;52.036;5.332;2024-01-15T06:33:28;2.10;99.90
69533;DHT22;56729;52.036;5.332;2024-01-15T06:34:30;2.10;99.90
69533;DHT22;56729;52.036;5.332;2024-01-15T06:35:32;2.00;99.90
69533;DHT22;56729;52.036;5.332;2024-01-15T06:36:36;2.00;99.90
69533;DHT22;56729;52.036;5.332;2024-01-15T06:37:38;2.00;99.90
69533;DHT22;56729;52.036;5.332;2024-01-15T06:38:40;1.90;99.90
69533;DHT22;56729;52.036;5.332;2024-01-15T06:39:42;1.90;99.90
69533;DHT22;56729;52.036;5.332;2024-01-15T06:40:44;1.90;99.90